Terminal Aerodrome Forecast
Issued by NWS Newport/Morehead City, NC

Home | Current Version | Previous Version | Text Only | Print | Product List | Glossary Off
Versions: 1 2 3 4 5 6 7 8 9 10 11 12

128
FTUS42 KMHX 182351
TAFEWN
TAF
KEWN 182351Z 1900/1924 20010KT P6SM SKC
     FM190200 22010KT P6SM FEW250 WS020/25040KT
     FM190900 22010KT P6SM FEW250
     FM191400 26014G24KT P6SM BKN050
     FM191900 30016G26KT P6SM SCT050=

USA.gov is the U.S. government's official web portal to all federal, state and local government web resources and services.